Time;durP1;ratioP1;P1;durP2;ratioP2;P2;SDS_P1;SDS_P2;PMS_P1;PMS_P2;Temp;Humidity;BMP_temperature;BMP_pressure;BME280_temperature;BME280_humidity;BME280_pressure;Samples;Min_cycle;Max_cycle;Signal;HPM_P1;HPM_P2
2022/05/24 00:00:18;;;;;;;10.32;5.93;;;15.70;99.90;;;;;;5087829;28;20051;-74
2022/05/24 00:02:44;;;;;;;9.50;6.68;;;15.60;99.90;;;;;;5089258;28;20054;-75
2022/05/24 00:05:10;;;;;;;8.65;5.85;;;15.60;99.90;;;;;;5094294;28;20047;-76
2022/05/24 00:07:38;;;;;;;9.35;6.13;;;15.50;99.90;;;;;;5112818;27;20418;-76
2022/05/24 00:10:05;;;;;;;;;;;15.50;99.90;;;;;;5110784;28;20053;-75
2022/05/24 00:12:32;;;;;;;8.75;6.10;;;15.40;99.90;;;;;;5104917;28;19926;-73
2022/05/24 00:17:43;;;;;;;8.45;6.40;;;15.40;99.90;;;;;;5092163;28;20093;-77
2022/05/24 00:20:10;;;;;;;10.40;7.30;;;15.40;99.90;;;;;;5090263;28;20048;-73
2022/05/24 00:22:35;;;;;;;9.30;7.88;;;15.30;99.90;;;;;;5090140;28;20048;-75
2022/05/24 00:25:01;;;;;;;9.75;8.60;;;15.30;99.90;;;;;;5095737;28;20035;-73
2022/05/24 00:27:30;;;;;;;10.93;9.63;;;15.30;99.90;;;;;;5106324;28;20054;-73
2022/05/24 00:29:56;;;;;;;12.85;10.50;;;15.30;99.90;;;;;;5100756;28;20177;-75
2022/05/24 00:32:22;;;;;;;14.68;11.70;;;15.30;99.90;;;;;;5091534;28;20376;-73
2022/05/24 00:34:49;;;;;;;14.27;11.13;;;15.30;99.90;;;;;;5092210;28;20060;-75
2022/05/24 00:37:17;;;;;;;12.85;11.52;;;15.30;99.90;;;;;;5096086;28;20048;-74
2022/05/24 00:39:43;;;;;;;13.65;12.15;;;15.30;99.90;;;;;;5106225;28;20498;-73
2022/05/24 00:42:13;;;;;;;12.90;11.43;;;15.30;99.90;;;;;;5111458;28;20039;-75
2022/05/24 00:45:21;;;;;;;13.85;12.43;;;15.20;99.90;;;;;;5099083;27;20050;-74
2022/05/24 00:47:53;;;;;;;12.82;11.20;;;15.20;99.90;;;;;;5096702;28;20132;-73
2022/05/24 00:50:27;;;;;;;12.38;11.07;;;15.20;99.90;;;;;;5099411;28;20257;-74
2022/05/24 00:53:18;;;;;;;11.23;10.00;;;15.30;99.90;;;;;;5111040;28;20082;-74
2022/05/24 00:55:53;;;;;;;15.35;10.23;;;15.30;99.90;;;;;;5107117;28;20055;-74
2022/05/24 00:58:45;;;;;;;12.30;10.05;;;15.30;99.90;;;;;;5097696;28;20492;-74
2022/05/24 01:01:34;;;;;;;11.60;9.07;;;15.40;99.90;;;;;;5074912;28;20048;-75
2022/05/24 01:04:00;;;;;;;11.02;9.15;;;15.40;99.90;;;;;;5103269;28;20563;-74
2022/05/24 01:06:25;;;;;;;11.60;8.95;;;15.40;99.90;;;;;;5109213;28;20044;-73
2022/05/24 01:08:54;;;;;;;10.30;8.73;;;15.40;99.90;;;;;;5111005;28;20042;-73
2022/05/24 01:11:22;;;;;;;10.90;8.93;;;15.40;99.90;;;;;;5092438;28;20052;-74
2022/05/24 01:13:50;;;;;;;11.93;8.25;;;15.40;99.90;;;;;;5090880;28;20036;-74
2022/05/24 01:16:16;;;;;;;9.95;8.10;;;15.40;99.90;;;;;;5086789;28;20068;-74
2022/05/24 01:18:42;;;;;;;11.95;8.27;;;15.40;99.90;;;;;;5094892;28;20039;-73
2022/05/24 01:21:14;;;;;;;10.82;7.85;;;15.30;99.90;;;;;;5099645;28;20082;-73
2022/05/24 01:23:54;;;;;;;9.10;7.63;;;15.30;99.90;;;;;;5088574;28;20040;-74
2022/05/24 01:26:47;;;;;;;10.93;7.50;;;15.30;99.90;;;;;;5096019;28;20044;-73
2022/05/24 01:29:13;;;;;;;10.10;7.30;;;15.30;99.90;;;;;;5110979;28;20047;-74
2022/05/24 01:37:10;;;;;;;9.35;7.22;;;15.20;99.90;;;;;;5096751;28;20044;-73
2022/05/24 01:39:38;;;;;;;10.25;7.40;;;15.20;99.90;;;;;;5094009;28;20115;-73
2022/05/24 01:42:05;;;;;;;11.00;8.10;;;15.20;99.90;;;;;;5102322;28;20471;-74
2022/05/24 01:44:36;;;;;;;8.60;7.65;;;15.10;99.90;;;;;;5108778;28;20074;-73
2022/05/24 01:47:02;;;;;;;11.68;8.40;;;15.10;99.90;;;;;;5108195;28;20078;-73
2022/05/24 01:49:32;;;;;;;14.10;8.75;;;15.10;99.90;;;;;;5110593;28;20048;-73
2022/05/24 01:52:12;;;;;;;10.38;8.45;;;15.10;99.90;;;;;;5105291;28;20075;-74
2022/05/24 01:54:45;;;;;;;9.55;8.45;;;15.10;99.90;;;;;;5104440;28;20101;-72
2022/05/24 01:57:19;;;;;;;10.95;8.60;;;15.10;99.90;;;;;;5099494;28;20052;-73
2022/05/24 01:59:48;;;;;;;11.45;9.18;;;15.10;99.90;;;;;;5098003;28;20032;-74
2022/05/24 02:02:15;;;;;;;13.80;10.85;;;15.10;99.90;;;;;;5101601;28;20040;-74
2022/05/24 02:04:41;;;;;;;12.85;11.38;;;15.00;99.90;;;;;;5105278;28;20046;-74
2022/05/24 02:07:26;;;;;;;13.32;11.38;;;15.10;99.90;;;;;;5107661;28;20130;-73
2022/05/24 02:09:55;;;;;;;15.15;13.18;;;15.00;99.90;;;;;;5107101;28;20047;-73
2022/05/24 02:12:27;;;;;;;15.48;13.95;;;15.10;99.90;;;;;;5107904;28;20054;-73
2022/05/24 02:15:12;;;;;;;14.85;13.32;;;15.10;99.90;;;;;;5106684;28;20073;-73
2022/05/24 02:17:40;;;;;;;15.75;14.15;;;15.10;99.90;;;;;;5087387;28;20066;-73
2022/05/24 02:20:10;;;;;;;17.27;15.57;;;15.10;99.90;;;;;;5094199;28;20495;-73
2022/05/24 02:22:37;;;;;;;17.80;15.52;;;15.20;99.90;;;;;;5104824;28;20400;-74
2022/05/24 02:25:20;;;;;;;20.33;18.23;;;15.10;99.90;;;;;;5092799;28;20071;-74
2022/05/24 02:27:47;;;;;;;21.13;19.02;;;15.20;99.90;;;;;;5091743;28;20401;-74
2022/05/24 02:30:18;;;;;;;20.73;18.52;;;15.10;99.90;;;;;;5089660;28;20430;-74
2022/05/24 02:32:43;;;;;;;22.30;19.95;;;15.20;99.90;;;;;;5103469;28;20048;-73
2022/05/24 02:35:10;;;;;;;22.20;20.02;;;15.20;99.90;;;;;;5105220;28;20032;-73
2022/05/24 02:37:36;;;;;;;23.37;20.90;;;15.20;99.90;;;;;;5089374;28;20052;-74
2022/05/24 02:42:47;;;;;;;24.13;21.63;;;15.20;99.90;;;;;;5067699;28;20053;-73
2022/05/24 02:45:13;;;;;;;24.15;21.58;;;15.20;99.90;;;;;;5078367;28;20457;-74
2022/05/24 02:47:39;;;;;;;23.60;21.15;;;15.20;99.90;;;;;;5106728;28;20043;-73
2022/05/24 02:50:05;;;;;;;24.88;22.38;;;15.30;99.90;;;;;;5107221;28;20379;-74
2022/05/24 02:52:30;;;;;;;26.45;23.75;;;15.30;99.90;;;;;;5094344;28;20048;-73
2022/05/24 02:54:57;;;;;;;25.17;22.80;;;15.30;99.90;;;;;;5102434;28;20062;-73
2022/05/24 02:57:23;;;;;;;27.02;24.13;;;15.30;99.90;;;;;;5104635;28;20122;-73
2022/05/24 02:59:49;;;;;;;28.17;25.20;;;15.30;99.90;;;;;;5108355;28;20051;-72
2022/05/24 03:02:15;;;;;;;25.52;23.02;;;15.30;99.90;;;;;;5086672;28;20040;-74
2022/05/24 03:04:42;;;;;;;;;;;15.30;99.90;;;;;;5109128;28;20138;-73
2022/05/24 03:09:51;;;;;;;27.50;24.70;;;15.30;99.90;;;;;;5109882;28;20466;-74
2022/05/24 03:15:04;;;;;;;29.02;25.98;;;15.30;99.90;;;;;;5098706;28;20040;-73
2022/05/24 03:17:29;;;;;;;28.55;25.65;;;15.30;99.90;;;;;;5094155;28;20055;-73
2022/05/24 03:19:55;;;;;;;29.63;26.55;;;15.40;99.90;;;;;;5108209;28;20047;-74
2022/05/24 03:22:21;;;;;;;30.77;27.77;;;15.40;99.90;;;;;;5087445;28;20052;-74
2022/05/24 03:24:46;;;;;;;29.05;26.05;;;15.40;99.90;;;;;;5085597;28;20483;-74
2022/05/24 03:27:13;;;;;;;30.48;27.48;;;15.40;99.90;;;;;;5088522;28;20101;-74
2022/05/24 03:29:43;;;;;;;29.30;26.30;;;15.40;99.90;;;;;;5098193;28;20040;-73
2022/05/24 03:32:10;;;;;;;30.30;27.20;;;15.40;99.90;;;;;;5109311;28;20040;-73
2022/05/24 03:34:37;;;;;;;29.98;26.95;;;15.40;99.90;;;;;;5109308;28;20035;-72
2022/05/24 03:37:03;;;;;;;31.30;28.30;;;15.40;99.90;;;;;;5091068;28;20044;-74
2022/05/24 03:39:29;;;;;;;30.50;27.70;;;15.40;99.90;;;;;;5093823;28;20028;-73
2022/05/24 03:41:54;;;;;;;30.52;27.33;;;15.40;99.90;;;;;;5107334;28;20036;-74
2022/05/24 03:44:20;;;;;;;32.13;29.02;;;15.40;99.90;;;;;;5108342;28;20047;-73
2022/05/24 03:46:46;;;;;;;31.02;27.92;;;15.40;99.90;;;;;;5108116;28;20048;-73
2022/05/24 03:49:14;;;;;;;32.00;28.90;;;15.40;99.90;;;;;;5091070;28;20036;-74
2022/05/24 03:51:40;;;;;;;30.50;27.42;;;15.40;99.90;;;;;;5088246;28;20048;-73
2022/05/24 03:54:06;;;;;;;32.33;29.25;;;15.40;99.90;;;;;;5095876;28;20100;-74
2022/05/24 03:56:33;;;;;;;29.98;26.85;;;15.40;99.90;;;;;;5106839;28;20123;-74
2022/05/24 03:58:59;;;;;;;30.42;27.20;;;15.40;99.90;;;;;;5112166;27;20089;-73
2022/05/24 04:01:24;;;;;;;30.58;27.25;;;15.40;99.90;;;;;;5112643;28;20055;-74
2022/05/24 04:03:50;;;;;;;31.30;26.92;;;15.40;99.90;;;;;;5108949;28;20044;-73
2022/05/24 04:06:15;;;;;;;29.85;26.75;;;15.40;99.90;;;;;;5111416;28;20035;-73
2022/05/24 04:08:41;;;;;;;30.17;27.08;;;15.40;99.90;;;;;;5090831;28;20039;-74
2022/05/24 04:11:09;;;;;;;30.85;27.55;;;15.40;99.90;;;;;;5091530;28;20640;-72
2022/05/24 04:13:37;;;;;;;30.77;27.70;;;15.40;99.90;;;;;;5090980;28;20044;-74
2022/05/24 04:16:03;;;;;;;;;;;15.40;99.90;;;;;;5091100;28;20506;-73
2022/05/24 04:18:28;;;;;;;30.88;27.52;;;15.40;99.90;;;;;;5090345;28;19924;-73
2022/05/24 04:20:54;;;;;;;31.10;27.70;;;15.30;99.90;;;;;;5100443;28;20473;-74
2022/05/24 04:23:21;;;;;;;31.83;28.48;;;15.40;99.90;;;;;;5112089;28;20046;-74
2022/05/24 04:25:48;;;;;;;30.88;27.77;;;15.40;99.90;;;;;;5111732;28;20048;-73
2022/05/24 04:28:14;;;;;;;34.00;30.50;;;15.40;99.90;;;;;;5092234;28;20048;-74
2022/05/24 04:30:40;;;;;;;32.33;28.83;;;15.40;99.90;;;;;;5103459;28;20047;-74
2022/05/24 04:33:06;;;;;;;30.95;27.70;;;15.40;99.90;;;;;;5108171;28;20077;-73
2022/05/24 04:35:31;;;;;;;32.92;29.65;;;15.40;99.90;;;;;;5111738;28;20399;-74
2022/05/24 04:37:59;;;;;;;32.42;28.52;;;15.50;99.90;;;;;;5091826;28;20062;-74
2022/05/24 04:42:18;;;;;;;;;;;15.40;99.90;;;;;;5090379;28;20369;-73
2022/05/24 04:43:10;;;;;;;32.67;28.65;;;15.40;99.90;;;;;;5098952;28;20410;-73
2022/05/24 04:45:36;;;;;;;31.20;27.80;;;15.40;99.90;;;;;;5090694;28;20048;-73
2022/05/24 04:48:01;;;;;;;30.85;27.58;;;15.30;99.90;;;;;;5104186;28;20044;-73
2022/05/24 04:50:27;;;;;;;31.40;27.95;;;15.40;99.90;;;;;;5106939;28;20101;-74
2022/05/24 04:52:53;;;;;;;33.03;27.52;;;15.40;99.90;;;;;;5095990;28;20391;-73
2022/05/24 04:55:18;;;;;;;32.95;28.17;;;15.40;99.90;;;;;;5091943;28;20081;-73
2022/05/24 04:57:44;;;;;;;29.85;26.67;;;15.40;99.90;;;;;;5088209;28;20143;-74
2022/05/24 05:00:15;;;;;;;31.52;28.10;;;15.30;99.90;;;;;;5105999;28;20499;-75
2022/05/24 05:02:41;;;;;;;32.67;28.65;;;15.30;99.90;;;;;;5094033;28;20126;-73
2022/05/24 05:05:07;;;;;;;31.30;27.80;;;15.30;99.90;;;;;;5105292;28;20046;-74
2022/05/24 05:07:33;;;;;;;32.40;28.35;;;15.20;99.90;;;;;;5107531;28;20537;-74
2022/05/24 05:09:59;;;;;;;32.85;28.95;;;15.20;99.90;;;;;;5109242;28;20044;-74
2022/05/24 05:12:26;;;;;;;32.00;28.50;;;15.30;99.90;;;;;;5106515;28;20442;-73
2022/05/24 05:14:52;;;;;;;31.13;27.88;;;15.20;99.90;;;;;;5092476;28;20040;-74
2022/05/24 05:17:19;;;;;;;33.25;29.80;;;15.20;99.90;;;;;;5099416;28;20052;-74
2022/05/24 05:19:45;;;;;;;34.08;28.90;;;15.20;99.90;;;;;;5103931;28;20048;-75
2022/05/24 05:22:12;;;;;;;32.63;28.98;;;15.20;99.90;;;;;;5089269;28;20148;-75
2022/05/24 05:24:38;;;;;;;32.78;29.33;;;15.10;99.90;;;;;;5099730;28;20047;-74
2022/05/24 05:27:05;;;;;;;32.20;28.83;;;15.10;99.90;;;;;;5106304;28;20573;-74
2022/05/24 05:32:20;;;;;;;33.72;30.13;;;15.10;99.90;;;;;;5102051;28;20043;-74
2022/05/24 05:34:47;;;;;;;34.17;29.92;;;15.10;99.90;;;;;;5110252;28;20039;-74
2022/05/24 05:37:13;;;;;;;34.35;28.77;;;15.10;99.90;;;;;;5094635;28;20044;-75
2022/05/24 05:39:39;;;;;;;34.17;30.20;;;15.10;99.90;;;;;;5103589;28;20043;-75
2022/05/24 05:42:05;;;;;;;31.60;28.20;;;15.00;99.90;;;;;;5106597;28;20040;-75
2022/05/24 05:44:31;;;;;;;33.05;28.13;;;15.00;99.90;;;;;;5105784;28;20040;-72
2022/05/24 05:46:57;;;;;;;31.90;28.52;;;15.00;99.90;;;;;;5105242;28;20390;-73
2022/05/24 05:49:23;;;;;;;30.83;27.42;;;15.00;99.90;;;;;;5105762;28;20124;-74
2022/05/24 05:51:49;;;;;;;29.42;26.33;;;15.10;99.90;;;;;;5106643;28;20036;-74
2022/05/24 05:54:15;;;;;;;29.87;26.67;;;15.10;99.90;;;;;;5097628;28;20647;-74
2022/05/24 05:56:41;;;;;;;29.23;26.13;;;15.20;99.90;;;;;;5094604;28;20059;-75
2022/05/24 05:59:07;;;;;;;29.55;26.40;;;15.20;99.90;;;;;;5092380;28;20050;-74
2022/05/24 06:01:33;;;;;;;31.20;26.10;;;15.20;99.90;;;;;;5097568;28;20048;-74
2022/05/24 06:04:00;;;;;;;27.90;23.77;;;15.20;99.90;;;;;;5092159;28;20086;-74
2022/05/24 06:06:30;;;;;;;27.00;23.60;;;15.20;99.90;;;;;;5091591;28;20044;-77
2022/05/24 06:08:56;;;;;;;27.02;24.05;;;15.10;99.90;;;;;;5081861;28;20085;-75
2022/05/24 06:11:23;;;;;;;26.70;23.65;;;15.10;99.90;;;;;;5091922;28;20503;-73
2022/05/24 06:13:49;;;;;;;29.38;23.17;;;15.10;99.90;;;;;;5081154;28;20086;-74
2022/05/24 06:16:16;;;;;;;26.80;23.35;;;15.20;99.90;;;;;;5087957;28;20043;-73
2022/05/24 06:18:42;;;;;;;26.67;23.60;;;15.30;99.90;;;;;;5089448;28;20036;-75
2022/05/24 06:21:07;;;;;;;23.27;20.58;;;15.40;99.90;;;;;;5094086;28;20050;-72
2022/05/24 06:23:33;;;;;;;24.65;21.35;;;15.40;99.90;;;;;;5077388;28;20674;-76
2022/05/24 06:26:00;;;;;;;25.67;20.83;;;15.40;99.90;;;;;;5100212;28;20164;-75
2022/05/24 06:28:26;;;;;;;23.85;21.27;;;15.40;99.90;;;;;;5101273;28;20054;-74
2022/05/24 06:30:52;;;;;;;23.58;21.02;;;15.40;99.90;;;;;;5087268;28;20546;-75
2022/05/24 06:33:18;;;;;;;24.77;19.95;;;15.40;99.90;;;;;;5099116;28;20490;-74
2022/05/24 06:35:43;;;;;;;24.10;21.58;;;15.40;99.90;;;;;;5093838;28;20036;-75
2022/05/24 06:38:09;;;;;;;25.17;20.50;;;15.40;99.90;;;;;;5090195;28;20047;-75
2022/05/24 06:40:35;;;;;;;36.67;23.85;;;15.40;99.90;;;;;;5079883;28;20050;-74
2022/05/24 06:43:02;;;;;;;23.23;20.42;;;15.40;99.90;;;;;;5093446;28;20425;-75
2022/05/24 06:45:29;;;;;;;24.10;20.48;;;15.40;99.90;;;;;;5084502;28;20056;-74
2022/05/24 06:47:55;;;;;;;23.77;19.70;;;15.30;99.90;;;;;;5097393;28;20049;-75
2022/05/24 06:50:20;;;;;;;23.60;18.67;;;15.30;99.90;;;;;;5085496;28;20063;-75
2022/05/24 06:52:47;;;;;;;21.95;18.65;;;15.30;99.90;;;;;;5087410;28;20079;-73
2022/05/24 06:55:13;;;;;;;21.50;19.10;;;15.30;99.90;;;;;;5083409;28;20052;-76
2022/05/24 06:57:39;;;;;;;23.55;17.67;;;15.30;99.90;;;;;;5085318;28;20310;-74
2022/05/24 07:03:05;;;;;;;20.77;17.70;;;15.30;99.90;;;;;;5087531;28;20052;-75
2022/05/24 07:05:31;;;;;;;18.63;16.63;;;15.20;99.90;;;;;;5090830;28;20058;-73
2022/05/24 07:07:59;;;;;;;20.50;16.65;;;15.20;99.90;;;;;;5089031;28;21003;-73
2022/05/24 07:10:25;;;;;;;21.20;16.67;;;15.20;99.90;;;;;;5096057;28;20069;-74
2022/05/24 07:13:04;;;;;;;23.63;17.85;;;15.10;99.90;;;;;;5105778;28;20503;-74
2022/05/24 07:15:30;;;;;;;18.45;16.50;;;15.20;99.90;;;;;;5087817;28;20120;-75
2022/05/24 07:17:57;;;;;;;20.17;15.40;;;15.10;99.90;;;;;;5100970;28;20530;-73
2022/05/24 07:20:25;;;;;;;18.10;15.20;;;15.10;99.90;;;;;;5108657;28;20047;-74
2022/05/24 07:22:52;;;;;;;23.23;16.23;;;15.20;99.90;;;;;;5100722;28;20046;-74
2022/05/24 07:25:18;;;;;;;17.60;15.67;;;15.20;99.90;;;;;;5086562;28;20043;-75
2022/05/24 07:27:44;;;;;;;19.33;17.33;;;15.20;99.90;;;;;;5094558;28;20507;-74
2022/05/24 07:30:10;;;;;;;22.35;14.38;;;15.30;99.90;;;;;;5089751;28;20093;-74
2022/05/24 07:32:36;;;;;;;23.90;15.27;;;15.30;99.90;;;;;;5090321;28;20106;-78
2022/05/24 07:35:03;;;;;;;16.52;14.27;;;15.30;99.90;;;;;;5094326;28;20039;-73
2022/05/24 07:37:29;;;;;;;19.25;15.10;;;15.40;99.90;;;;;;5100931;28;20118;-73
2022/05/24 07:48:09;;;;;;;16.70;14.50;;;15.40;99.90;;;;;;5091544;28;20232;-73
2022/05/24 07:50:36;;;;;;;18.65;15.10;;;15.40;99.90;;;;;;5101588;28;20660;-74
2022/05/24 07:53:02;;;;;;;18.88;14.50;;;15.50;99.90;;;;;;5090776;28;20051;-74
2022/05/24 07:55:28;;;;;;;18.92;14.27;;;15.50;99.90;;;;;;5100452;28;20052;-75
2022/05/24 07:57:54;;;;;;;17.33;15.02;;;15.50;99.90;;;;;;5111009;28;20048;-73
2022/05/24 08:00:20;;;;;;;16.95;13.85;;;15.50;99.90;;;;;;5092766;28;20122;-76
2022/05/24 08:02:50;;;;;;;17.88;14.13;;;15.50;99.90;;;;;;5088812;28;20149;-75
2022/05/24 08:05:17;;;;;;;16.23;12.80;;;15.50;99.90;;;;;;5077610;28;20052;-75
2022/05/24 08:07:45;;;;;;;15.95;12.70;;;15.40;99.90;;;;;;5099668;28;20062;-75
2022/05/24 08:10:11;;;;;;;;;;;15.40;99.90;;;;;;5104540;28;20043;-77
2022/05/24 08:12:36;;;;;;;17.90;12.82;;;15.40;99.90;;;;;;5110902;28;19981;-76
2022/05/24 08:15:02;;;;;;;18.25;13.15;;;15.40;99.90;;;;;;5112562;28;20040;-77
2022/05/24 08:17:28;;;;;;;16.70;12.88;;;15.40;99.90;;;;;;5103984;28;20073;-76
2022/05/24 08:19:54;;;;;;;16.95;11.80;;;15.50;99.90;;;;;;5106521;28;20051;-73
2022/05/24 08:22:20;;;;;;;17.23;12.50;;;15.70;99.90;;;;;;5094288;28;20826;-75
2022/05/24 08:24:46;;;;;;;15.48;12.30;;;15.70;99.90;;;;;;5102846;28;20040;-75
2022/05/24 08:27:14;;;;;;;16.88;12.77;;;15.90;99.90;;;;;;5109129;28;20062;-77
2022/05/24 08:29:41;;;;;;;16.13;12.35;;;15.80;99.90;;;;;;5093215;28;20097;-75
2022/05/24 08:32:08;;;;;;;18.98;12.65;;;15.90;99.90;;;;;;5099674;28;20040;-74
2022/05/24 08:34:34;;;;;;;17.27;12.63;;;15.90;99.90;;;;;;5091593;28;20024;-75
2022/05/24 08:37:00;;;;;;;15.30;12.02;;;15.90;99.90;;;;;;5094088;28;20047;-75
2022/05/24 08:39:26;;;;;;;14.00;11.77;;;16.00;99.90;;;;;;5088993;28;20046;-74
2022/05/24 08:42:04;;;;;;;16.48;11.93;;;16.00;99.90;;;;;;5097237;28;20118;-73
2022/05/24 08:50:17;;;;;;;14.35;10.63;;;16.10;99.90;;;;;;5093745;28;20518;-74
2022/05/24 08:53:05;;;;;;;12.65;11.05;;;16.20;99.90;;;;;;5097720;28;20052;-72
2022/05/24 08:55:32;;;;;;;15.25;11.68;;;16.30;99.90;;;;;;5094096;28;20052;-72
2022/05/24 08:57:59;;;;;;;12.80;10.87;;;16.40;99.90;;;;;;5109934;28;20051;-71
2022/05/24 09:00:33;;;;;;;12.82;10.73;;;16.50;99.90;;;;;;5106023;28;20297;-72
2022/05/24 09:03:02;;;;;;;13.85;10.48;;;16.50;99.90;;;;;;5100045;28;20051;-71
2022/05/24 09:05:33;;;;;;;15.32;11.00;;;16.60;99.90;;;;;;5097945;28;20372;-70
2022/05/24 09:08:05;;;;;;;13.27;11.43;;;16.60;99.90;;;;;;5108897;28;20475;-70
2022/05/24 09:10:44;;;;;;;11.55;10.10;;;16.70;99.90;;;;;;5107224;28;20046;-72
2022/05/24 09:13:27;;;;;;;11.25;9.85;;;16.70;99.90;;;;;;5107400;28;20047;-70
2022/05/24 09:16:12;;;;;;;14.48;10.10;;;16.80;99.90;;;;;;5091568;28;20040;-78
2022/05/24 09:19:10;;;;;;;11.85;9.05;;;16.80;99.90;;;;;;5091673;28;20040;-72
2022/05/24 09:21:39;;;;;;;13.88;8.88;;;16.70;99.90;;;;;;5094540;28;20111;-71
2022/05/24 09:24:21;;;;;;;11.77;9.85;;;16.70;99.90;;;;;;5106493;28;20052;-70
2022/05/24 09:27:05;;;;;;;8.63;7.22;;;16.70;99.90;;;;;;5090123;28;20044;-70
2022/05/24 09:29:31;;;;;;;9.40;6.82;;;16.80;99.90;;;;;;5103406;28;20139;-72
2022/05/24 09:32:03;;;;;;;10.88;6.78;;;16.80;99.90;;;;;;5089686;28;20044;-74
2022/05/24 09:34:31;;;;;;;9.30;6.72;;;17.00;99.90;;;;;;5109479;28;20043;-72
2022/05/24 09:36:58;;;;;;;9.93;7.50;;;17.10;99.90;;;;;;5107426;28;20047;-73
2022/05/24 09:39:30;;;;;;;10.55;7.10;;;17.20;99.90;;;;;;5110822;28;20039;-72
2022/05/24 09:42:10;;;;;;;9.35;7.38;;;17.30;99.90;;;;;;5092323;28;20425;-72
2022/05/24 09:44:46;;;;;;;9.68;7.88;;;17.20;99.90;;;;;;5090604;28;20524;-74
2022/05/24 09:47:31;;;;;;;8.68;7.25;;;17.20;99.90;;;;;;5090371;28;20058;-73
2022/05/24 09:50:15;;;;;;;13.88;8.07;;;17.20;99.90;;;;;;5071053;28;20071;-73
2022/05/24 09:52:46;;;;;;;10.45;8.35;;;17.10;99.90;;;;;;5079475;28;20040;-74
2022/05/24 09:55:22;;;;;;;10.23;8.32;;;17.10;99.90;;;;;;5099582;28;20052;-73
2022/05/24 09:57:48;;;;;;;11.05;7.60;;;17.20;99.90;;;;;;5090996;28;20055;-71
2022/05/24 10:00:20;;;;;;;10.23;8.07;;;17.20;99.90;;;;;;5088503;28;20052;-73
2022/05/24 10:02:47;;;;;;;9.45;7.97;;;17.20;99.90;;;;;;5094429;28;20074;-73
2022/05/24 10:05:25;;;;;;;9.65;8.30;;;17.20;99.90;;;;;;5092295;28;20051;-73
2022/05/24 10:07:58;;;;;;;12.13;8.43;;;17.20;99.90;;;;;;5099709;28;20069;-71
2022/05/24 10:10:46;;;;;;;11.55;6.50;;;17.10;99.90;;;;;;5088462;28;20050;-71
2022/05/24 10:13:16;;;;;;;8.27;5.35;;;16.80;99.90;;;;;;5108512;28;20390;-71
2022/05/24 10:16:13;;;;;;;4.00;2.88;;;16.40;99.90;;;;;;5094800;28;20441;-72
2022/05/24 10:18:50;;;;;;;;;;;15.90;99.90;;;;;;5089008;28;20105;-71
2022/05/24 10:21:25;;;;;;;3.83;2.58;;;15.40;99.90;;;;;;5108162;28;19920;-72
2022/05/24 10:24:07;;;;;;;4.53;2.65;;;15.10;99.90;;;;;;5094711;28;20048;-74
2022/05/24 10:26:45;;;;;;;4.97;3.45;;;15.10;99.90;;;;;;5074496;28;20072;-73
2022/05/24 10:29:40;;;;;;;4.78;4.10;;;15.20;99.90;;;;;;5105803;28;20504;-73
2022/05/24 10:38:33;;;;;;;14.02;12.52;;;16.10;99.90;;;;;;5091465;28;20052;-74
2022/05/24 10:41:08;;;;;;;14.45;13.05;;;16.50;99.90;;;;;;5071433;28;20036;-73
2022/05/24 10:43:51;;;;;;;14.57;13.13;;;16.80;99.90;;;;;;5086903;28;20130;-71
2022/05/24 10:46:33;;;;;;;13.73;12.15;;;17.00;99.90;;;;;;5102736;28;20208;-72
2022/05/24 10:49:30;;;;;;;11.02;9.88;;;17.10;99.90;;;;;;5092779;28;20090;-72
2022/05/24 10:52:01;;;;;;;;;;;17.00;99.90;;;;;;5092628;28;20071;-72
2022/05/24 10:55:13;;;;;;;5.68;1.80;;;16.50;99.90;;;;;;5091469;28;19924;-72
2022/05/24 10:57:46;;;;;;;3.63;1.50;;;16.00;99.90;;;;;;5024310;28;20533;-69
2022/05/24 11:00:14;;;;;;;3.97;1.50;;;15.50;99.90;;;;;;5007784;28;20445;-74
2022/05/24 11:02:52;;;;;;;;;;;15.20;99.90;;;;;;5057355;28;20086;-77
2022/05/24 11:05:25;;;;;;;2.72;1.77;;;14.90;99.90;;;;;;5105581;28;19923;-75
2022/05/24 11:08:18;;;;;;;5.13;1.98;;;14.60;99.90;;;;;;5102839;28;20056;-74
2022/05/24 11:10:48;;;;;;;4.13;2.20;;;14.40;99.90;;;;;;5090877;28;20044;-76
2022/05/24 11:13:19;;;;;;;3.03;2.15;;;14.20;99.90;;;;;;5086578;28;20370;-75
2022/05/24 11:16:00;;;;;;;5.20;2.10;;;14.30;99.90;;;;;;5093927;28;20050;-75
2022/05/24 11:18:27;;;;;;;2.88;2.13;;;14.30;99.90;;;;;;5106979;28;20051;-76
2022/05/24 11:20:59;;;;;;;3.63;2.47;;;14.40;99.90;;;;;;5105290;28;20054;-74
2022/05/24 11:23:31;;;;;;;4.35;2.50;;;14.60;99.90;;;;;;5100148;28;20047;-75
2022/05/24 11:26:18;;;;;;;5.53;2.88;;;14.60;99.90;;;;;;5088504;28;20119;-75
2022/05/24 11:28:50;;;;;;;6.85;3.30;;;14.80;99.90;;;;;;5083309;28;20044;-75
2022/05/24 11:32:00;;;;;;;4.45;3.75;;;14.90;99.90;;;;;;5090844;28;20035;-76
2022/05/24 11:34:37;;;;;;;4.80;4.20;;;15.20;99.90;;;;;;5047852;28;20044;-78
2022/05/24 11:37:13;;;;;;;4.57;3.80;;;15.50;99.90;;;;;;5093839;28;20036;-75
2022/05/24 11:39:41;;;;;;;5.10;4.43;;;15.80;99.90;;;;;;5088036;28;20538;-75
2022/05/24 11:42:25;;;;;;;6.50;4.25;;;16.00;99.90;;;;;;5090021;28;20048;-75
2022/05/24 11:44:53;;;;;;;5.78;4.40;;;16.20;99.90;;;;;;5091307;28;20036;-75
2022/05/24 11:47:34;;;;;;;4.60;2.53;;;16.10;99.90;;;;;;5090947;28;20169;-75
2022/05/24 11:50:01;;;;;;;2.60;1.10;;;16.00;99.90;;;;;;5102080;28;20444;-75
2022/05/24 11:52:39;;;;;;;1.27;1.10;;;15.70;99.90;;;;;;5102167;28;20394;-74
2022/05/24 11:55:05;;;;;;;2.40;1.10;;;15.50;99.90;;;;;;5107101;28;20059;-74
2022/05/24 11:57:39;;;;;;;1.17;1.05;;;15.30;99.90;;;;;;5107423;28;20047;-74
2022/05/24 12:00:06;;;;;;;3.45;1.08;;;15.30;99.90;;;;;;5106030;28;20096;-74
2022/05/24 12:07:54;;;;;;;2.03;1.20;;;15.40;99.90;;;;;;5107112;28;20062;-73
2022/05/24 12:08:28;;;;;;;2.53;1.90;;;15.40;99.90;;;;;;5087975;28;20127;-73
2022/05/24 12:11:16;;;;;;;2.47;2.13;;;15.40;99.90;;;;;;5088072;28;20044;-76
2022/05/24 12:13:54;;;;;;;5.10;2.70;;;15.40;99.90;;;;;;5088585;28;20044;-76
2022/05/24 12:17:03;;;;;;;4.53;3.08;;;15.40;99.90;;;;;;5090644;28;20449;-77
2022/05/24 12:19:38;;;;;;;3.10;2.67;;;15.50;99.90;;;;;;5097592;28;20213;-74
2022/05/24 12:22:09;;;;;;;4.05;2.75;;;15.40;99.90;;;;;;5088244;28;20037;-76
2022/05/24 12:24:47;;;;;;;5.18;3.00;;;15.40;99.90;;;;;;5093571;27;20043;-75
2022/05/24 12:27:18;;;;;;;4.10;2.63;;;15.20;99.90;;;;;;5103125;28;20529;-75
2022/05/24 12:29:47;;;;;;;4.55;3.10;;;15.20;99.90;;;;;;5097302;28;20391;-74
2022/05/24 12:32:19;;;;;;;3.97;2.75;;;15.20;99.90;;;;;;5107615;28;20249;-75
2022/05/24 12:34:45;;;;;;;4.13;3.33;;;15.30;99.90;;;;;;5110635;28;20043;-76
2022/05/24 12:37:27;;;;;;;4.90;3.17;;;15.30;99.90;;;;;;5100429;28;20372;-74
2022/05/24 12:40:08;;;;;;;2.92;1.80;;;15.40;99.90;;;;;;5086616;28;20039;-75
2022/05/24 12:42:40;;;;;;;4.60;2.60;;;15.40;99.90;;;;;;5105008;28;20088;-73
2022/05/24 12:45:06;;;;;;;4.15;2.50;;;15.30;99.90;;;;;;5108218;28;20250;-74
2022/05/24 12:47:31;;;;;;;4.18;2.83;;;15.30;99.90;;;;;;5096608;28;20051;-73
2022/05/24 12:49:59;;;;;;;3.65;2.80;;;15.30;99.90;;;;;;5105945;28;20036;-73
2022/05/24 12:52:30;;;;;;;3.80;2.65;;;15.20;99.90;;;;;;5085260;28;20035;-75
2022/05/24 12:54:59;;;;;;;4.75;2.90;;;15.20;99.90;;;;;;5083965;28;20452;-74
2022/05/24 12:57:35;;;;;;;4.13;2.75;;;15.10;99.90;;;;;;5101064;28;20052;-76
2022/05/24 13:00:04;;;;;;;3.93;2.50;;;15.10;99.90;;;;;;5097389;28;20048;-75
2022/05/24 13:02:37;;;;;;;3.60;2.78;;;15.20;99.90;;;;;;5089350;28;20089;-74
2022/05/24 13:05:06;;;;;;;4.07;2.90;;;15.20;99.90;;;;;;5090360;28;20048;-74
2022/05/24 13:07:47;;;;;;;3.90;2.85;;;15.30;99.90;;;;;;5089646;28;20048;-74
2022/05/24 13:10:26;;;;;;;5.32;2.55;;;15.30;99.90;;;;;;5104123;28;20036;-82
2022/05/24 13:12:59;;;;;;;4.43;2.58;;;15.50;99.90;;;;;;5077824;28;20453;-76
2022/05/24 13:15:37;;;;;;;4.85;2.47;;;15.70;99.90;;;;;;5096541;28;20058;-74
2022/05/24 13:18:24;;;;;;;4.05;2.75;;;15.90;99.90;;;;;;5110571;28;20067;-77
2022/05/24 13:20:55;;;;;;;3.28;2.40;;;16.00;99.90;;;;;;5108716;28;20047;-75
2022/05/24 13:23:33;;;;;;;3.88;2.42;;;16.20;99.90;;;;;;5109097;28;20051;-76
2022/05/24 13:26:02;;;;;;;3.95;2.60;;;16.30;99.90;;;;;;5097597;28;20093;-75
2022/05/24 13:28:38;;;;;;;4.38;2.60;;;16.40;99.90;;;;;;5087924;28;20096;-75
2022/05/24 13:34:26;;;;;;;3.75;2.80;;;16.80;99.90;;;;;;5032297;28;20140;-77
2022/05/24 13:36:54;;;;;;;3.72;2.60;;;17.10;99.90;;;;;;5095041;28;20062;-76
2022/05/24 13:39:24;;;;;;;4.43;2.58;;;17.20;99.90;;;;;;5103127;28;20130;-76
2022/05/24 13:41:56;;;;;;;3.72;2.30;;;17.20;99.90;;;;;;5104111;28;20122;-77